KBMQ

Details ICAO KBMQ (BMQ)
Name BURNET MUNI KATE CRADDOCK FLD
Region United States
Timezone America/Chicago (UTC-6.0)
Plans Departing 4
Arriving 3
Stats Elevation 1,284 ft / 391 m (AMSL)
Location 30.738928° -98.238609°
Runways 1
Magnetic Variation 4.130° E
Sunrise 2017-12-13 13:23:21 UTC / 2017-12-13 07:23:21 Local
Sunset 2017-12-13 23:34:03 UTC / 2017-12-13 17:34:03 Local
Advertisement - Login to hide

Runways

ID Width Length Bearing (true) Bearing (mag) Surface Threshold Offset Overrun Length
01 75 ft / 23 m 5,015 ft / 1,529 m 16.07° 11.94° Asphalt 0 ft / 0 m 0 ft / 0 m
19 75 ft / 23 m 5,015 ft / 1,529 m 196.07° 191.94° Asphalt 0 ft / 0 m 0 ft / 0 m

Map

Weather


0- 5 10 15 20 25 30 35+ Temperature / ° C

Clouds and Precipitation
Forecast for 2017-12-13 18:00 UTC. Updated 19 minutes ago

Ground ~20,000 ft ~40,000 ft Winds

METAR

KBMQ 131653Z AUTO 21007KT 10SM CLR 11/M01 A3015 RMK AO2 SLP210 T01061006

TAF

Not found

Frequencies

Recorded 119.92 MHz ASOS
Unicom 122.80 MHz CTAF/UNICOM
Warning: Do not use this data for real-world aviation or navigation. No guarantee of current accuracy is given.